Time;durP1;ratioP1;P1;durP2;ratioP2;P2;SDS_P1;SDS_P2;PMS_P1;PMS_P2;Temp;Humidity;BMP_temperature;BMP_pressure;BME280_temperature;BME280_humidity;BME280_pressure;Samples;Min_cycle;Max_cycle;Signal;HPM_P1;HPM_P2
2022/06/20 00:01:34;;;;;;;4.50;4.10;;;;;;;20.89;64.43;99531.25;5072926;28;21044;-56
2022/06/20 00:04:02;;;;;;;4.07;3.77;;;;;;;20.85;64.72;99535.69;5073045;28;20195;-56
2022/06/20 00:06:29;;;;;;;4.30;3.90;;;;;;;20.77;64.96;99526.31;5072872;28;20199;-56
2022/06/20 00:08:56;;;;;;;7.33;4.30;;;;;;;20.81;65.26;99530.59;5071066;28;20196;-56
2022/06/20 00:11:31;;;;;;;6.10;4.30;;;;;;;20.75;64.93;99526.38;5066653;28;20697;-62
2022/06/20 00:13:58;;;;;;;4.93;4.40;;;;;;;20.65;64.85;99532.72;5066294;28;20202;-63
2022/06/20 00:16:26;;;;;;;4.80;4.37;;;;;;;20.64;64.90;99520.53;5068212;28;20199;-64
2022/06/20 00:18:53;;;;;;;4.20;3.80;;;;;;;20.67;65.83;99530.06;5067701;28;20200;-64
2022/06/20 00:21:22;;;;;;;8.50;4.40;;;;;;;20.63;66.45;99526.66;5070117;28;20191;-63
2022/06/20 00:23:50;;;;;;;7.27;4.50;;;;;;;20.33;67.29;99503.88;5063612;28;20195;-63
2022/06/20 00:26:18;;;;;;;5.43;4.53;;;;;;;20.39;68.46;99524.63;5067582;28;20194;-63
2022/06/20 00:28:48;;;;;;;13.07;4.87;;;;;;;20.28;69.80;99521.41;5066052;28;20294;-64
2022/06/20 00:31:16;;;;;;;9.43;4.60;;;;;;;20.18;70.67;99527.69;5065975;28;20265;-64
2022/06/20 00:33:43;;;;;;;5.63;5.13;;;;;;;20.10;71.00;99507.00;5051569;28;20271;-63
2022/06/20 00:36:10;;;;;;;6.47;5.53;;;;;;;19.94;71.56;99490.81;5051460;28;20291;-64
2022/06/20 00:38:38;;;;;;;6.27;5.20;;;;;;;20.08;71.61;99516.59;5051258;28;20242;-61
2022/06/20 00:41:08;;;;;;;12.37;5.30;;;;;;;20.03;72.13;99515.81;5051249;28;20199;-56
2022/06/20 00:43:40;;;;;;;6.43;5.27;;;;;;;19.77;72.56;99482.50;5051330;28;20710;-56
2022/06/20 00:46:11;;;;;;;6.83;5.53;;;;;;;19.93;73.23;99509.09;5051412;28;20196;-56
2022/06/20 00:48:42;;;;;;;9.97;5.67;;;;;;;19.87;73.57;99504.00;5052650;28;20188;-57
2022/06/20 00:51:19;;;;;;;6.90;5.60;;;;;;;19.85;73.63;99505.81;5052147;28;20192;-56
2022/06/20 00:53:51;;;;;;;7.50;5.90;;;;;;;19.88;73.81;99505.75;5054466;28;20247;-56
2022/06/20 00:56:24;;;;;;;6.47;5.60;;;;;;;19.80;73.91;99512.88;5051261;28;20212;-56
2022/06/20 00:58:56;;;;;;;6.30;5.70;;;;;;;19.77;74.09;99511.19;5057658;28;20210;-56
2022/06/20 01:01:30;;;;;;;10.17;5.30;;;;;;;19.71;73.86;99511.31;5071501;28;20720;-56
2022/06/20 01:04:01;;;;;;;5.97;5.37;;;;;;;19.67;73.85;99506.16;5065977;28;20198;-56
2022/06/20 01:06:33;;;;;;;6.10;5.37;;;;;;;19.63;74.01;99502.78;5051759;28;20188;-56
2022/06/20 01:09:05;;;;;;;7.37;5.40;;;;;;;19.58;74.11;99499.41;5063421;28;20291;-56
2022/06/20 01:11:42;;;;;;;5.77;5.27;;;;;;;19.55;74.02;99506.44;5051697;28;20280;-56
2022/06/20 01:14:25;;;;;;;9.83;5.60;;;;;;;19.46;74.23;99498.78;5051442;28;20192;-55
2022/06/20 01:16:55;;;;;;;9.20;5.40;;;;;;;19.51;74.55;99496.94;5051217;28;20229;-56
2022/06/20 01:19:35;;;;;;;7.70;5.53;;;;;;;19.47;74.66;99496.16;5051310;28;20196;-57
2022/06/20 01:22:06;;;;;;;5.63;5.13;;;;;;;19.48;74.80;99499.59;5051362;28;20659;-56
2022/06/20 01:24:43;;;;;;;6.07;5.47;;;;;;;19.40;75.30;99491.94;5051201;28;20207;-56
2022/06/20 01:27:21;;;;;;;5.60;5.10;;;;;;;19.39;75.27;99487.63;5051099;28;20188;-56
2022/06/20 01:29:48;;;;;;;6.05;5.45;;;;;;;19.39;76.22;99490.25;5050389;28;20439;-57
2022/06/20 01:32:15;;;;;;;7.47;5.30;;;;;;;19.40;76.15;99486.72;5069635;28;20199;-56
2022/06/20 01:34:42;;;;;;;5.80;5.30;;;;;;;19.37;76.51;99484.13;5071109;28;20199;-56
2022/06/20 01:37:25;;;;;;;8.27;5.27;;;;;;;19.32;77.01;99476.41;5070809;28;20215;-56
2022/06/20 01:39:55;;;;;;;5.30;4.83;;;;;;;19.26;77.25;99479.13;5071043;28;20195;-56
2022/06/20 01:42:23;;;;;;;5.50;4.97;;;;;;;19.16;77.77;99488.03;5071055;28;20845;-57
2022/06/20 01:44:53;;;;;;;9.23;4.93;;;;;;;19.01;78.04;99466.63;5070775;28;20238;-56
2022/06/20 01:47:21;;;;;;;5.27;4.80;;;;;;;19.06;78.00;99490.84;5070443;28;20320;-56
2022/06/20 01:49:50;;;;;;;5.63;5.13;;;;;;;19.02;78.17;99489.16;5070712;28;20194;-56
2022/06/20 01:52:23;;;;;;;5.33;4.93;;;;;;;18.96;78.96;99486.66;5050816;28;20200;-56
2022/06/20 01:54:55;;;;;;;5.53;5.03;;;;;;;18.89;78.33;99485.91;5050683;28;20203;-56
2022/06/20 01:57:24;;;;;;;4.93;4.50;;;;;;;18.90;78.14;99485.00;5064279;28;20230;-56
2022/06/20 01:59:56;;;;;;;9.77;5.00;;;;;;;18.85;78.31;99486.84;5070480;28;20202;-56
2022/06/20 02:02:24;;;;;;;7.43;4.80;;;;;;;18.83;77.96;99481.69;5070704;28;20194;-56
2022/06/20 02:04:52;;;;;;;6.60;5.10;;;;;;;18.81;78.20;99480.00;5070577;28;20655;-56
2022/06/20 02:07:19;;;;;;;4.60;4.30;;;;;;;18.79;78.26;99476.53;5070454;28;20632;-56
2022/06/20 02:09:46;;;;;;;9.13;4.67;;;;;;;18.85;78.06;99479.03;5070437;28;20199;-57
2022/06/20 02:12:13;;;;;;;7.97;5.03;;;;;;;18.83;77.65;99471.25;5070438;28;20433;-56
2022/06/20 02:14:45;;;;;;;6.77;4.50;;;;;;;18.84;77.38;99472.13;5070482;28;20665;-56
2022/06/20 02:17:15;;;;;;;7.53;4.60;;;;;;;18.88;76.46;99473.78;5069574;28;20222;-57
2022/06/20 02:19:47;;;;;;;5.23;4.67;;;;;;;18.83;75.83;99473.00;5070299;28;20199;-57
2022/06/20 02:22:16;;;;;;;5.40;4.23;;;;;;;18.77;75.33;99476.56;5070666;28;20196;-57
2022/06/20 02:24:48;;;;;;;8.50;4.90;;;;;;;18.75;75.08;99475.75;5070775;28;20195;-57
2022/06/20 02:27:22;;;;;;;4.93;4.47;;;;;;;18.73;73.94;99476.66;5070323;28;20198;-57
2022/06/20 02:29:51;;;;;;;7.03;4.73;;;;;;;18.70;74.37;99476.72;5070189;28;20206;-57
2022/06/20 02:32:21;;;;;;;5.77;4.43;;;;;;;18.64;73.66;99476.81;5070101;28;20192;-57
2022/06/20 02:34:49;;;;;;;7.40;4.23;;;;;;;18.60;72.96;99478.59;5070370;28;20198;-56
2022/06/20 02:37:23;;;;;;;6.10;4.80;;;;;;;18.58;72.43;99475.16;5069643;28;20445;-56
2022/06/20 02:39:52;;;;;;;4.47;4.00;;;;;;;18.46;72.29;99477.91;5070226;28;20202;-56
2022/06/20 02:42:27;;;;;;;4.97;4.47;;;;;;;18.19;72.25;99439.31;5070140;28;20213;-56
2022/06/20 02:44:57;;;;;;;4.73;4.33;;;;;;;18.37;72.47;99464.22;5069983;28;20716;-57
2022/06/20 02:47:27;;;;;;;6.80;4.27;;;;;;;18.36;71.93;99467.69;5070122;28;20241;-56
2022/06/20 02:49:57;;;;;;;5.20;4.67;;;;;;;18.21;72.34;99455.78;5070181;28;20191;-55
2022/06/20 02:52:30;;;;;;;4.97;3.77;;;;;;;18.18;71.64;99455.84;5070110;28;20187;-56
2022/06/20 02:54:57;;;;;;;5.73;4.50;;;;;;;18.14;71.79;99468.00;5070068;28;20264;-56
2022/06/20 02:57:33;;;;;;;6.40;4.20;;;;;;;18.13;71.98;99468.88;5070208;28;20233;-55
2022/06/20 03:00:02;;;;;;;9.07;4.30;;;;;;;18.13;72.20;99471.47;5070303;28;20253;-56
2022/06/20 03:02:34;;;;;;;5.43;4.10;;;;;;;18.31;72.05;99477.31;5069847;28;20662;-56
2022/06/20 03:05:03;;;;;;;4.60;4.20;;;;;;;18.60;70.82;99475.13;5068492;28;20774;-56
2022/06/20 03:07:36;;;;;;;5.17;4.67;;;;;;;18.68;69.70;99455.88;5069861;28;20195;-55
2022/06/20 03:10:11;;;;;;;4.43;4.10;;;;;;;19.15;68.33;99470.66;5070067;28;20199;-56
2022/06/20 03:12:38;;;;;;;4.33;3.80;;;;;;;19.44;66.67;99470.16;5069837;28;20188;-56
2022/06/20 03:15:08;;;;;;;6.30;4.30;;;;;;;19.56;65.21;99472.50;5069885;28;20202;-56
2022/06/20 03:17:35;;;;;;;4.80;3.73;;;;;;;19.40;66.00;99474.56;5069775;28;20728;-56
2022/06/20 03:20:07;;;;;;;5.97;3.97;;;;;;;19.29;65.93;99463.44;5064740;28;20206;-56
2022/06/20 03:22:38;;;;;;;4.60;3.50;;;;;;;19.25;65.44;99467.03;5067356;28;20188;-57
2022/06/20 03:25:07;;;;;;;4.60;3.73;;;;;;;19.30;65.46;99469.53;5059169;28;20203;-56
2022/06/20 03:27:37;;;;;;;6.10;4.03;;;;;;;19.20;64.61;99475.81;5069490;28;20654;-56
2022/06/20 03:30:19;;;;;;;4.40;3.83;;;;;;;19.27;64.39;99466.97;5072306;28;20543;-57
2022/06/20 03:32:46;;;;;;;5.17;3.83;;;;;;;19.32;63.92;99462.53;5073157;28;20191;-57
2022/06/20 03:35:13;;;;;;;4.27;3.87;;;;;;;19.34;63.94;99464.22;5073325;28;20195;-56
2022/06/20 03:37:40;;;;;;;6.23;3.97;;;;;;;19.34;62.88;99466.81;5073204;28;20218;-55
2022/06/20 03:40:08;;;;;;;6.53;3.87;;;;;;;19.35;62.14;99468.56;5073155;28;20199;-56
2022/06/20 03:42:35;;;;;;;5.90;4.03;;;;;;;19.30;61.95;99467.78;5072992;28;20244;-56
2022/06/20 03:45:05;;;;;;;4.40;3.80;;;;;;;19.20;62.17;99471.44;5071978;28;20460;-56
2022/06/20 03:47:39;;;;;;;3.87;3.57;;;;;;;19.28;62.02;99461.72;5072669;28;20196;-56
2022/06/20 03:50:12;;;;;;;4.60;4.00;;;;;;;19.32;62.52;99470.34;5072918;28;20662;-56
2022/06/20 03:52:44;;;;;;;4.00;3.70;;;;;;;19.30;62.18;99461.72;5068370;28;20204;-56
2022/06/20 03:55:19;;;;;;;3.53;3.27;;;;;;;19.27;62.28;99460.03;5070179;28;20217;-63
2022/06/20 03:57:52;;;;;;;4.40;4.10;;;;;;;19.28;62.59;99466.09;5072740;28;20232;-64
2022/06/20 04:00:23;;;;;;;7.17;4.17;;;;;;;19.31;62.61;99463.44;5072778;28;20187;-64
2022/06/20 04:02:57;;;;;;;5.90;4.37;;;;;;;19.19;63.19;99456.72;5069981;28;20259;-64
2022/06/20 04:05:29;;;;;;;6.37;4.07;;;;;;;19.20;63.50;99458.41;5072684;28;20198;-64
2022/06/20 04:08:02;;;;;;;4.60;4.20;;;;;;;19.19;64.07;99458.47;5072730;28;20205;-63
2022/06/20 04:13:27;;;;;;;5.17;4.50;;;;;;;19.19;64.23;99459.31;5072749;28;20198;-63
2022/06/20 04:15:58;;;;;;;5.63;4.77;;;;;;;19.20;64.22;99462.78;5072977;28;20191;-63
2022/06/20 04:18:31;;;;;;;5.27;4.80;;;;;;;19.26;64.64;99463.50;5072444;28;20693;-64
2022/06/20 04:21:10;;;;;;;5.13;4.73;;;;;;;19.33;64.38;99465.13;5072384;28;20199;-64
2022/06/20 04:23:43;;;;;;;8.00;4.43;;;;;;;19.38;64.22;99462.44;5072502;28;20606;-64
2022/06/20 04:26:16;;;;;;;5.87;4.87;;;;;;;19.42;64.22;99458.88;5072758;28;20297;-64
2022/06/20 04:28:50;;;;;;;7.70;5.28;;;;;;;19.57;63.92;99461.19;5071450;28;20434;-63
2022/06/20 04:31:22;;;;;;;6.97;4.70;;;;;;;19.70;63.55;99459.16;5071253;28;20199;-63
2022/06/20 04:33:57;;;;;;;6.73;4.43;;;;;;;19.68;62.95;99447.94;5072052;28;20203;-64
2022/06/20 04:36:36;;;;;;;5.20;4.60;;;;;;;19.76;63.11;99457.31;5072148;28;20199;-63
2022/06/20 04:39:10;;;;;;;5.13;4.60;;;;;;;19.82;63.12;99453.72;5072201;28;20188;-64
2022/06/20 04:41:42;;;;;;;5.57;4.97;;;;;;;19.95;62.74;99457.75;5070885;28;20720;-63
2022/06/20 04:44:19;;;;;;;6.60;4.73;;;;;;;20.01;61.98;99453.28;5071491;28;20227;-64
2022/06/20 04:46:53;;;;;;;4.70;4.27;;;;;;;20.18;61.90;99457.25;5071311;28;20191;-64
2022/06/20 04:49:22;;;;;;;6.13;5.07;;;;;;;20.34;61.40;99462.09;5071810;28;20183;-63
2022/06/20 04:51:50;;;;;;;4.97;4.47;;;;;;;20.50;59.49;99453.00;5070259;28;20457;-63
2022/06/20 04:54:21;;;;;;;6.03;4.20;;;;;;;20.67;58.69;99451.72;5072026;28;20344;-63
2022/06/20 04:56:50;;;;;;;5.17;4.27;;;;;;;20.59;58.75;99454.53;5071187;28;20219;-64
2022/06/20 04:59:20;;;;;;;5.07;4.30;;;;;;;20.55;59.61;99463.31;5071768;28;20192;-64
2022/06/20 05:01:48;;;;;;;8.03;4.70;;;;;;;20.52;59.63;99453.81;5068018;28;20294;-64
2022/06/20 05:04:31;;;;;;;5.30;4.73;;;;;;;20.64;59.60;99462.25;5071657;28;20196;-62
2022/06/20 05:07:02;;;;;;;5.13;4.73;;;;;;;20.66;59.54;99455.25;5070259;28;20278;-63
2022/06/20 05:09:36;;;;;;;6.03;4.40;;;;;;;20.72;59.72;99448.09;5051180;28;20531;-64
2022/06/20 05:12:11;;;;;;;5.27;4.20;;;;;;;20.70;59.19;99446.44;5051112;28;20203;-63
2022/06/20 05:14:47;;;;;;;5.63;4.67;;;;;;;20.78;59.51;99449.69;5051437;28;20176;-64
2022/06/20 05:17:21;;;;;;;4.67;3.90;;;;;;;20.84;59.32;99445.19;5051018;28;20241;-65
2022/06/20 05:19:53;;;;;;;5.67;4.30;;;;;;;20.99;59.36;99446.53;5066415;28;20199;-65
2022/06/20 05:22:24;;;;;;;6.20;4.50;;;;;;;21.02;59.35;99443.81;5071012;28;20183;-65
2022/06/20 05:24:53;;;;;;;5.10;4.43;;;;;;;21.18;58.91;99448.63;5070652;28;20204;-63
2022/06/20 05:27:26;;;;;;;5.10;4.50;;;;;;;21.31;58.13;99453.53;5070830;28;20720;-63
2022/06/20 05:29:55;;;;;;;5.60;4.30;;;;;;;21.41;58.16;99453.22;5070808;28;20204;-63
2022/06/20 05:32:26;;;;;;;6.63;4.33;;;;;;;21.43;57.65;99454.03;5070279;28;20237;-63
2022/06/20 05:35:00;;;;;;;5.57;4.88;;;;;;;21.55;57.53;99455.44;5070662;28;20495;-62
2022/06/20 05:37:34;;;;;;;6.33;4.73;;;;;;;21.60;56.71;99456.16;5068063;28;20199;-62
2022/06/20 05:40:10;;;;;;;6.40;4.73;;;;;;;21.68;56.97;99449.81;5070197;28;20186;-62
2022/06/20 05:42:37;;;;;;;8.40;5.50;;;;;;;21.75;56.75;99443.50;5066887;28;20290;-64
2022/06/20 05:45:14;;;;;;;5.17;4.67;;;;;;;21.79;56.58;99439.03;5068986;28;20223;-64
2022/06/20 05:47:42;;;;;;;5.23;4.73;;;;;;;21.89;55.97;99442.28;5070275;28;20199;-64
2022/06/20 05:50:24;;;;;;;6.20;4.60;;;;;;;21.90;55.46;99441.34;5070227;28;20222;-65
2022/06/20 05:52:53;;;;;;;11.20;4.73;;;;;;;21.87;55.44;99437.06;5070199;28;20197;-64
2022/06/20 05:55:24;;;;;;;5.37;4.60;;;;;;;22.01;55.02;99441.88;5070224;28;20188;-64
2022/06/20 05:57:52;;;;;;;5.40;4.77;;;;;;;22.00;54.63;99438.41;5069756;28;20226;-64
2022/06/20 06:00:23;;;;;;;4.43;4.03;;;;;;;22.05;54.55;99435.66;5067054;28;20318;-64
2022/06/20 06:02:54;;;;;;;5.43;4.27;;;;;;;22.17;53.83;99435.25;5065247;28;20203;-65
2022/06/20 06:05:29;;;;;;;5.50;4.43;;;;;;;22.22;53.83;99433.38;5068248;28;20195;-64
2022/06/20 06:08:03;;;;;;;5.67;4.73;;;;;;;22.33;53.83;99433.91;5063855;28;20669;-64
2022/06/20 06:10:41;;;;;;;4.07;3.77;;;;;;;22.37;52.49;99432.88;5069556;28;20187;-64
2022/06/20 06:13:15;;;;;;;4.53;4.10;;;;;;;22.31;51.91;99435.69;5068712;28;20206;-63
2022/06/20 06:18:34;;;;;;;3.80;3.47;;;;;;;22.40;50.81;99401.38;5050705;28;20216;-63
2022/06/20 06:21:03;;;;;;;4.03;3.63;;;;;;;22.64;51.41;99423.28;5051832;28;20192;-64
2022/06/20 06:23:30;;;;;;;5.50;3.80;;;;;;;22.64;50.82;99421.53;5064031;28;20669;-64
2022/06/20 06:25:57;;;;;;;5.53;4.40;;;;;;;22.72;50.81;99419.50;5066913;28;20183;-64
2022/06/20 06:28:26;;;;;;;16.17;3.80;;;;;;;22.75;50.63;99416.78;5069401;28;20214;-64
2022/06/20 06:31:00;;;;;;;5.03;3.90;;;;;;;22.79;51.19;99418.41;5069576;28;20199;-63
2022/06/20 06:33:31;;;;;;;5.13;3.83;;;;;;;22.92;50.79;99417.06;5069772;28;20265;-64
2022/06/20 06:36:05;;;;;;;5.27;3.70;;;;;;;23.02;50.32;99408.88;5049795;28;20199;-64
2022/06/20 06:38:37;;;;;;;4.17;3.83;;;;;;;23.05;49.82;99412.22;5049885;28;20219;-64
2022/06/20 06:41:13;;;;;;;4.45;4.00;;;;;;;23.00;50.40;99408.06;5049208;28;20439;-65
2022/06/20 06:43:45;;;;;;;4.10;3.70;;;;;;;23.11;50.08;99401.53;5049541;28;20239;-63
2022/06/20 06:46:16;;;;;;;3.93;3.43;;;;;;;23.22;50.07;99414.25;5050059;28;20188;-64
2022/06/20 06:48:50;;;;;;;4.63;4.10;;;;;;;23.26;50.27;99400.97;5049140;28;20192;-63
2022/06/20 06:51:24;;;;;;;4.13;3.73;;;;;;;23.29;50.68;99394.78;5055697;28;20195;-63
2022/06/20 06:53:56;;;;;;;4.63;4.20;;;;;;;23.35;50.92;99394.50;5066895;28;20237;-63
2022/06/20 06:56:28;;;;;;;4.70;4.30;;;;;;;23.44;50.73;99397.69;5069583;28;20204;-64
2022/06/20 06:59:01;;;;;;;4.37;3.97;;;;;;;23.55;51.25;99394.66;5069775;28;20323;-65
2022/06/20 07:01:34;;;;;;;4.73;4.23;;;;;;;23.65;51.10;99388.16;5069656;28;20192;-64
2022/06/20 07:04:06;;;;;;;6.40;4.72;;;;;;;23.71;51.15;99387.91;5070635;28;20496;-65
2022/06/20 07:06:40;;;;;;;4.33;4.03;;;;;;;23.81;50.95;99383.19;5073319;28;20286;-64
2022/06/20 07:09:14;;;;;;;5.30;4.23;;;;;;;23.85;49.95;99379.50;5073275;28;20614;-65
2022/06/20 07:11:46;;;;;;;7.73;4.17;;;;;;;23.93;50.54;99382.69;5073147;28;20191;-65
2022/06/20 07:14:18;;;;;;;4.80;4.40;;;;;;;23.90;50.99;99380.16;5073286;28;20180;-65
2022/06/20 07:16:52;;;;;;;4.60;4.20;;;;;;;23.87;50.61;99378.53;5072853;28;20194;-64
2022/06/20 07:19:21;;;;;;;4.97;4.23;;;;;;;23.94;50.69;99368.66;5072022;28;20230;-65
2022/06/20 07:21:49;;;;;;;7.37;4.43;;;;;;;24.06;50.43;99368.19;5072302;28;20192;-63
2022/06/20 07:24:25;;;;;;;5.10;4.60;;;;;;;24.01;50.24;99370.97;5070251;28;20206;-64
2022/06/20 07:27:06;;;;;;;5.40;4.90;;;;;;;24.17;50.27;99357.25;5070892;28;20206;-64
2022/06/20 07:29:37;;;;;;;5.17;4.50;;;;;;;24.30;49.77;99355.84;5071777;28;20278;-64
2022/06/20 07:32:10;;;;;;;5.03;4.53;;;;;;;24.38;49.67;99351.97;5072001;28;20543;-65
2022/06/20 07:34:43;;;;;;;4.83;4.43;;;;;;;24.46;49.74;99351.63;5072653;28;20191;-65
2022/06/20 07:37:14;;;;;;;4.60;4.20;;;;;;;24.53;49.46;99348.69;5071100;28;20187;-65
2022/06/20 07:39:46;;;;;;;7.13;5.00;;;;;;;24.64;49.47;99350.84;5070835;28;20779;-64
2022/06/20 07:42:21;;;;;;;6.97;4.47;;;;;;;24.59;48.70;99322.16;5071039;28;20188;-63
2022/06/20 07:44:52;;;;;;;6.17;4.33;;;;;;;24.61;48.83;99340.50;5071594;28;20226;-64
2022/06/20 07:47:25;;;;;;;5.83;4.53;;;;;;;24.51;49.50;99340.03;5071580;28;20199;-63
2022/06/20 07:49:55;;;;;;;5.15;4.65;;;;;;;24.76;49.50;99338.94;5071383;28;20444;-63
2022/06/20 07:52:26;;;;;;;4.47;4.07;;;;;;;24.93;49.17;99326.81;5071997;28;20213;-64
2022/06/20 07:54:59;;;;;;;5.07;4.63;;;;;;;25.01;47.94;99332.59;5071705;28;20677;-64
2022/06/20 07:57:32;;;;;;;4.93;4.40;;;;;;;25.20;48.62;99328.19;5071599;28;20195;-64
2022/06/20 08:00:06;;;;;;;5.17;4.37;;;;;;;25.30;48.39;99330.41;5071636;28;20302;-64
2022/06/20 08:02:37;;;;;;;5.00;4.50;;;;;;;25.42;48.71;99324.56;5071795;28;20195;-65
2022/06/20 08:05:06;;;;;;;6.03;4.60;;;;;;;25.59;47.74;99319.41;5071521;28;20195;-64
2022/06/20 08:07:40;;;;;;;5.73;4.97;;;;;;;25.62;47.52;99316.63;5071793;28;20203;-64
2022/06/20 08:10:13;;;;;;;5.27;4.77;;;;;;;25.68;47.30;99317.16;5071985;28;20278;-64
2022/06/20 08:12:44;;;;;;;7.53;5.15;;;;;;;25.80;47.29;99313.97;5070785;28;20840;-65
2022/06/20 08:15:18;;;;;;;5.93;4.15;;;;;;;25.90;45.70;99310.88;5071762;28;20662;-64
2022/06/20 08:17:45;;;;;;;4.90;4.40;;;;;;;25.94;45.78;99312.41;5071392;28;20195;-64
2022/06/20 08:20:12;;;;;;;8.17;3.83;;;;;;;26.01;45.41;99304.16;5071731;28;20192;-64
2022/06/20 08:22:48;;;;;;;4.80;4.40;;;;;;;26.09;44.89;99302.00;5071679;28;20196;-64
2022/06/20 08:25:22;;;;;;;5.33;4.13;;;;;;;26.08;44.85;99305.56;5071519;28;20209;-64
2022/06/20 08:27:53;;;;;;;5.63;4.10;;;;;;;26.15;44.87;99304.34;5071322;28;20199;-64
2022/06/20 08:30:31;;;;;;;4.82;4.40;;;;;;;26.22;44.14;99307.53;5071270;28;20192;-64
2022/06/20 08:33:05;;;;;;;6.30;3.85;;;;;;;26.23;43.17;99307.44;5070980;28;20191;-64
2022/06/20 08:35:40;;;;;;;4.07;3.77;;;;;;;26.28;42.16;99308.09;5070938;28;20192;-64
2022/06/20 08:38:13;;;;;;;6.67;3.80;;;;;;;26.34;40.87;99305.13;5070858;28;20717;-65
2022/06/20 08:41:24;;;;;;;3.47;3.27;;;;;;;26.34;40.19;99307.75;5070787;28;20654;-64
2022/06/20 08:44:16;;;;;;;5.80;3.67;;;;;;;26.35;40.82;99298.94;5071226;28;20570;-64
2022/06/20 08:47:30;;;;;;;3.73;3.50;;;;;;;26.36;40.03;99312.97;5071110;28;20196;-64
2022/06/20 08:50:35;;;;;;;3.20;3.00;;;;;;;26.40;39.54;99303.94;4989699;28;20673;-64
2022/06/20 08:53:28;;;;;;;4.10;3.40;;;;;;;26.36;39.12;99290.09;4989792;28;20198;-64
2022/06/20 08:56:08;;;;;;;4.70;3.63;;;;;;;26.36;40.14;99305.91;5060621;28;20195;-64
2022/06/20 08:58:45;;;;;;;3.73;3.43;;;;;;;26.26;40.73;99302.03;5070946;28;20223;-64
2022/06/20 09:01:21;;;;;;;2.97;2.77;;;;;;;26.15;37.79;99311.41;5070781;28;20214;-64
2022/06/20 09:04:04;;;;;;;3.47;3.17;;;;;;;26.42;38.42;99309.16;5070726;28;20210;-64
2022/06/20 09:06:50;;;;;;;5.82;3.83;;;;;;;26.66;39.83;99302.63;5070944;28;20943;-64
2022/06/20 09:09:40;;;;;;;3.80;3.50;;;;;;;26.75;38.26;99296.88;5070721;28;20296;-64
2022/06/20 09:12:25;;;;;;;3.93;2.97;;;;;;;26.88;37.79;99297.94;5070554;28;20397;-64
2022/06/20 09:15:03;;;;;;;3.50;3.20;;;;;;;26.84;36.80;99291.97;5070236;28;20218;-63
2022/06/20 09:17:40;;;;;;;3.30;2.90;;;;;;;26.65;37.00;99285.94;5069985;28;20214;-64
2022/06/20 09:20:18;;;;;;;4.10;3.15;;;;;;;26.63;37.14;99289.59;5069398;28;20441;-65
2022/06/20 09:23:04;;;;;;;5.87;5.37;;;;;;;26.92;38.26;99278.38;5070397;28;20286;-65
2022/06/20 09:25:41;;;;;;;3.47;3.17;;;;;;;27.22;36.99;99289.09;5070216;28;20191;-65
2022/06/20 09:28:33;;;;;;;2.80;2.60;;;;;;;27.45;34.50;99284.25;5069471;28;20202;-65
2022/06/20 09:31:07;;;;;;;4.57;2.67;;;;;;;27.62;33.49;99285.94;5070550;28;20192;-65
2022/06/20 09:33:59;;;;;;;3.50;3.20;;;;;;;27.70;33.41;99274.94;5070177;28;20191;-63
2022/06/20 09:36:43;;;;;;;3.13;2.78;;;;;;;27.83;32.86;99276.78;5069924;28;20187;-65
2022/06/20 09:39:24;;;;;;;3.67;2.50;;;;;;;27.66;31.62;99273.44;5069572;28;20345;-64
2022/06/20 09:42:00;;;;;;;2.40;2.20;;;;;;;27.57;31.86;99271.31;5069868;28;20195;-65
2022/06/20 09:44:34;;;;;;;3.35;2.13;;;;;;;27.58;31.42;99273.84;5069524;28;20608;-64
2022/06/20 09:47:14;;;;;;;2.70;2.50;;;;;;;27.63;32.23;99269.19;5069504;28;20228;-57
2022/06/20 09:49:49;;;;;;;2.53;2.33;;;;;;;27.73;30.94;99266.84;5070095;28;20191;-56
2022/06/20 09:52:28;;;;;;;3.75;2.67;;;;;;;27.84;30.89;99260.03;5069865;28;20187;-56
2022/06/20 09:55:03;;;;;;;3.38;2.28;;;;;;;28.07;29.91;99261.38;5069395;28;20199;-57
2022/06/20 09:57:41;;;;;;;2.40;2.30;;;;;;;28.17;29.83;99257.22;5069687;28;20230;-56
2022/06/20 10:00:16;;;;;;;3.20;3.00;;;;;;;28.36;30.62;99249.91;5069414;28;20211;-56
2022/06/20 10:02:55;;;;;;;2.35;2.13;;;;;;;28.48;27.45;99249.19;5069679;28;20190;-56
2022/06/20 10:05:33;;;;;;;3.05;2.55;;;;;;;28.51;29.46;99254.25;5068555;28;20540;-56
2022/06/20 10:08:15;;;;;;;2.42;2.28;;;;;;;28.64;29.84;99252.63;5061797;28;20189;-56
2022/06/20 10:10:46;;;;;;;3.53;3.22;;;;;;;28.70;29.22;99232.03;5062033;28;20200;-56
2022/06/20 10:13:22;;;;;;;3.47;2.10;;;;;;;28.80;29.56;99236.66;5068862;28;20199;-56
2022/06/20 10:15:56;;;;;;;2.63;2.40;;;;;;;28.87;29.14;99237.13;5069730;28;20203;-57
2022/06/20 10:18:32;;;;;;;2.35;2.15;;;;;;;28.78;28.36;99237.69;5066890;28;20209;-57
2022/06/20 10:21:09;;;;;;;2.90;2.70;;;;;;;28.55;29.62;99233.78;5067234;28;20187;-57
2022/06/20 10:23:53;;;;;;;2.33;2.22;;;;;;;28.47;29.31;99221.03;5067474;28;20191;-57
2022/06/20 10:26:50;;;;;;;8.52;3.45;;;;;;;28.68;29.89;99211.81;5068536;28;20605;-57
2022/06/20 10:29:25;;;;;;;3.13;2.92;;;;;;;28.86;29.83;99207.16;5060752;28;20187;-56
2022/06/20 10:32:03;;;;;;;3.13;2.83;;;;;;;29.11;29.58;99212.63;5066625;28;20270;-56
2022/06/20 10:34:41;;;;;;;3.13;2.92;;;;;;;29.29;29.57;99221.19;5065610;28;20191;-57
2022/06/20 10:37:25;;;;;;;5.40;2.67;;;;;;;29.37;28.94;99216.25;5068690;28;20214;-57
2022/06/20 10:39:58;;;;;;;2.13;2.00;;;;;;;29.34;27.60;99210.31;5070068;28;20226;-64
2022/06/20 10:42:32;;;;;;;7.22;5.72;;;;;;;29.27;29.17;99204.56;5070657;28;20196;-63
2022/06/20 10:45:26;;;;;;;5.90;3.50;;;;;;;29.43;29.29;99207.91;5068450;28;22610;-62
2022/06/20 10:48:12;;;;;;;5.75;4.35;;;;;;;29.63;28.96;99202.16;5066347;28;20183;-64
2022/06/20 10:50:46;;;;;;;3.38;2.95;;;;;;;29.61;27.80;99196.09;5067770;28;20616;-65
2022/06/20 10:53:21;;;;;;;2.40;2.30;;;;;;;29.68;27.40;99197.41;5063592;28;20657;-64
2022/06/20 10:55:56;;;;;;;4.55;2.50;;;;;;;29.73;27.20;99192.66;5067571;28;20195;-64
2022/06/20 10:58:51;;;;;;;4.47;3.35;;;;;;;29.90;28.23;99196.00;5051594;28;20443;-64
2022/06/20 11:01:23;;;;;;;6.63;5.97;;;;;;;30.08;27.69;99189.47;5052956;28;20188;-57
2022/06/20 11:04:15;;;;;;;2.65;2.45;;;;;;;30.28;27.38;99191.56;5055954;28;20441;-57
2022/06/20 11:06:54;;;;;;;2.75;2.05;;;;;;;30.15;26.06;99175.69;5072541;28;20642;-58
2022/06/20 11:09:30;;;;;;;2.20;2.10;;;;;;;30.11;26.06;99183.91;5072697;28;20191;-57
2022/06/20 11:12:04;;;;;;;2.03;1.90;;;;;;;30.14;26.13;99178.41;5072851;28;20586;-57
2022/06/20 11:14:38;;;;;;;2.80;2.10;;;;;;;30.05;26.33;99177.25;5072929;28;20195;-58
2022/06/20 11:17:17;;;;;;;4.07;2.28;;;;;;;29.74;26.40;99175.81;5070085;28;20206;-57
2022/06/20 11:20:09;;;;;;;2.30;2.10;;;;;;;29.65;26.29;99175.56;5064721;28;20646;-57
2022/06/20 11:22:41;;;;;;;4.43;2.38;;;;;;;29.63;27.17;99149.19;5062806;28;20619;-56
2022/06/20 11:25:21;;;;;;;3.20;2.95;;;;;;;29.87;26.78;99167.91;5059298;28;20334;-57
2022/06/20 11:28:10;;;;;;;2.80;2.60;;;;;;;29.81;26.49;99171.81;5059927;28;20192;-56
2022/06/20 11:30:45;;;;;;;3.28;2.70;;;;;;;29.77;27.60;99169.44;5062282;28;20200;-64
2022/06/20 11:36:14;;;;;;;4.60;2.45;;;;;;;29.99;27.16;99166.22;5066801;28;20414;-65
2022/06/20 11:38:58;;;;;;;2.70;2.50;;;;;;;30.08;27.09;99160.31;5069233;28;20680;-65
2022/06/20 11:41:33;;;;;;;2.35;2.25;;;;;;;29.73;25.91;99160.84;5067366;28;20187;-64
2022/06/20 11:44:27;;;;;;;5.20;4.60;;;;;;;29.88;27.77;99158.16;5070193;28;21628;-65
2022/06/20 11:47:46;;;;;;;2.60;2.40;;;;;;;30.07;26.22;99161.25;5057311;28;20196;-65
2022/06/20 11:50:36;;;;;;;2.70;2.20;;;;;;;30.27;25.39;99150.13;5061522;28;20192;-65
2022/06/20 11:53:18;;;;;;;2.72;2.35;;;;;;;30.25;25.88;99150.22;5056688;28;20731;-65
2022/06/20 11:55:49;;;;;;;2.58;2.38;;;;;;;30.24;25.73;99150.34;5067711;28;20192;-64
2022/06/20 11:58:22;;;;;;;2.60;2.33;;;;;;;30.25;26.06;99146.72;5055328;28;20195;-64
2022/06/20 12:00:53;;;;;;;2.28;2.10;;;;;;;30.17;25.64;99155.22;5051081;28;20216;-65
2022/06/20 12:03:29;;;;;;;2.50;2.30;;;;;;;30.22;26.74;99142.47;5055449;28;20200;-65
2022/06/20 12:06:04;;;;;;;3.00;2.67;;;;;;;30.28;25.46;99138.56;5062279;28;20577;-65
2022/06/20 12:08:42;;;;;;;3.97;2.75;;;;;;;30.34;26.33;99135.47;5051665;28;20203;-57
2022/06/20 12:11:37;;;;;;;2.50;2.30;;;;;;;30.45;25.62;99134.75;5051364;28;20654;-57
2022/06/20 12:14:16;;;;;;;2.50;2.40;;;;;;;30.74;25.80;99133.50;5052161;28;20211;-57
2022/06/20 12:16:54;;;;;;;5.90;4.20;;;;;;;30.95;25.33;99124.91;5057598;28;20551;-57